sensor_id;sensor_type;location;lat;lon;timestamp;temperature;humidity
14053;DHT22;7101;51.600;7.310;2022-11-20T00:01:07;-3.80;1.00
14053;DHT22;7101;51.600;7.310;2022-11-20T00:03:35;-3.80;1.00
14053;DHT22;7101;51.600;7.310;2022-11-20T00:06:06;-3.80;1.00
14053;DHT22;7101;51.600;7.310;2022-11-20T00:08:34;-3.80;1.00
14053;DHT22;7101;51.600;7.310;2022-11-20T00:11:03;-3.80;1.00
14053;DHT22;7101;51.600;7.310;2022-11-20T00:13:30;-3.90;1.00
14053;DHT22;7101;51.600;7.310;2022-11-20T00:15:58;-3.90;1.00
14053;DHT22;7101;51.600;7.310;2022-11-20T00:18:25;-3.80;1.00
14053;DHT22;7101;51.600;7.310;2022-11-20T00:20:52;-3.90;1.00
14053;DHT22;7101;51.600;7.310;2022-11-20T00:23:20;-3.90;1.00
14053;DHT22;7101;51.600;7.310;2022-11-20T00:25:47;-3.90;1.00
14053;DHT22;7101;51.600;7.310;2022-11-20T00:28:14;-3.90;1.00
14053;DHT22;7101;51.600;7.310;2022-11-20T00:30:43;-3.90;1.00
14053;DHT22;7101;51.600;7.310;2022-11-20T00:33:11;-3.90;1.00
14053;DHT22;7101;51.600;7.310;2022-11-20T00:35:39;-4.00;1.00
14053;DHT22;7101;51.600;7.310;2022-11-20T00:38:05;-4.10;1.00
14053;DHT22;7101;51.600;7.310;2022-11-20T00:40:34;-4.10;1.00
14053;DHT22;7101;51.600;7.310;2022-11-20T00:43:00;-4.00;1.00
14053;DHT22;7101;51.600;7.310;2022-11-20T00:45:28;-3.90;1.00
14053;DHT22;7101;51.600;7.310;2022-11-20T00:47:55;-3.90;1.00
14053;DHT22;7101;51.600;7.310;2022-11-20T00:50:23;-3.70;1.00
14053;DHT22;7101;51.600;7.310;2022-11-20T00:52:50;-3.60;1.00
14053;DHT22;7101;51.600;7.310;2022-11-20T00:55:16;-3.50;1.00
14053;DHT22;7101;51.600;7.310;2022-11-20T00:57:45;-3.30;1.00
14053;DHT22;7101;51.600;7.310;2022-11-20T01:00:11;-3.30;1.00
14053;DHT22;7101;51.600;7.310;2022-11-20T01:02:38;-3.20;1.00
14053;DHT22;7101;51.600;7.310;2022-11-20T01:05:06;-3.20;1.00
14053;DHT22;7101;51.600;7.310;2022-11-20T01:07:34;-3.10;1.00
14053;DHT22;7101;51.600;7.310;2022-11-20T01:10:01;-3.20;1.00
14053;DHT22;7101;51.600;7.310;2022-11-20T01:12:28;-3.20;1.00
14053;DHT22;7101;51.600;7.310;2022-11-20T01:14:56;-3.10;1.00
14053;DHT22;7101;51.600;7.310;2022-11-20T01:17:24;-3.00;1.00
14053;DHT22;7101;51.600;7.310;2022-11-20T01:19:51;-2.90;1.00
14053;DHT22;7101;51.600;7.310;2022-11-20T01:22:17;-2.90;1.00
14053;DHT22;7101;51.600;7.310;2022-11-20T01:24:45;-3.00;1.00
14053;DHT22;7101;51.600;7.310;2022-11-20T01:27:12;-3.10;1.00
14053;DHT22;7101;51.600;7.310;2022-11-20T01:29:39;-3.30;1.00
14053;DHT22;7101;51.600;7.310;2022-11-20T01:32:07;-3.30;1.00
14053;DHT22;7101;51.600;7.310;2022-11-20T01:34:35;-3.40;1.00
14053;DHT22;7101;51.600;7.310;2022-11-20T01:37:02;-3.50;1.00
14053;DHT22;7101;51.600;7.310;2022-11-20T01:39:30;-3.50;1.00
14053;DHT22;7101;51.600;7.310;2022-11-20T01:41:57;-3.40;1.00
14053;DHT22;7101;51.600;7.310;2022-11-20T01:44:54;-3.50;1.00
14053;DHT22;7101;51.600;7.310;2022-11-20T01:47:27;-3.60;1.00
14053;DHT22;7101;51.600;7.310;2022-11-20T01:49:59;-3.50;1.00
14053;DHT22;7101;51.600;7.310;2022-11-20T01:52:30;-3.60;1.00
14053;DHT22;7101;51.600;7.310;2022-11-20T01:55:01;-3.70;1.00
14053;DHT22;7101;51.600;7.310;2022-11-20T01:57:31;-3.70;1.00
14053;DHT22;7101;51.600;7.310;2022-11-20T02:00:03;-3.80;1.00
14053;DHT22;7101;51.600;7.310;2022-11-20T02:02:32;-3.90;1.00
14053;DHT22;7101;51.600;7.310;2022-11-20T02:05:04;-3.80;1.00
14053;DHT22;7101;51.600;7.310;2022-11-20T02:07:36;-3.90;1.00
14053;DHT22;7101;51.600;7.310;2022-11-20T02:10:04;-4.00;1.00
14053;DHT22;7101;51.600;7.310;2022-11-20T02:12:31;-4.10;1.00
14053;DHT22;7101;51.600;7.310;2022-11-20T02:15:28;-4.10;1.00
14053;DHT22;7101;51.600;7.310;2022-11-20T02:17:56;-4.10;1.00
14053;DHT22;7101;51.600;7.310;2022-11-20T02:20:23;-4.10;1.00
14053;DHT22;7101;51.600;7.310;2022-11-20T02:22:54;-4.10;1.00
14053;DHT22;7101;51.600;7.310;2022-11-20T02:25:26;-4.10;1.00
14053;DHT22;7101;51.600;7.310;2022-11-20T02:27:55;-4.10;1.00
14053;DHT22;7101;51.600;7.310;2022-11-20T02:30:22;-4.20;1.00
14053;DHT22;7101;51.600;7.310;2022-11-20T02:32:49;-4.20;1.00
14053;DHT22;7101;51.600;7.310;2022-11-20T02:35:41;-4.20;1.00
14053;DHT22;7101;51.600;7.310;2022-11-20T02:38:08;-4.20;1.00
14053;DHT22;7101;51.600;7.310;2022-11-20T02:40:36;-4.20;1.00
14053;DHT22;7101;51.600;7.310;2022-11-20T02:43:03;-4.10;1.00
14053;DHT22;7101;51.600;7.310;2022-11-20T02:45:31;-4.10;1.00
14053;DHT22;7101;51.600;7.310;2022-11-20T02:47:58;-4.10;1.00
14053;DHT22;7101;51.600;7.310;2022-11-20T02:50:25;-4.20;1.00
14053;DHT22;7101;51.600;7.310;2022-11-20T02:52:53;-4.20;1.00
14053;DHT22;7101;51.600;7.310;2022-11-20T02:55:20;-4.20;1.00
14053;DHT22;7101;51.600;7.310;2022-11-20T02:57:49;-4.30;1.00
14053;DHT22;7101;51.600;7.310;2022-11-20T03:00:17;-4.30;1.00
14053;DHT22;7101;51.600;7.310;2022-11-20T03:02:45;-4.30;1.00
14053;DHT22;7101;51.600;7.310;2022-11-20T03:05:11;-4.30;1.00
14053;DHT22;7101;51.600;7.310;2022-11-20T03:07:38;-4.20;1.00
14053;DHT22;7101;51.600;7.310;2022-11-20T03:10:06;-4.30;1.00
14053;DHT22;7101;51.600;7.310;2022-11-20T03:12:33;-4.30;1.00
14053;DHT22;7101;51.600;7.310;2022-11-20T03:15:01;-4.30;1.00
14053;DHT22;7101;51.600;7.310;2022-11-20T03:17:28;-4.20;1.00
14053;DHT22;7101;51.600;7.310;2022-11-20T03:19:55;-4.10;1.00
14053;DHT22;7101;51.600;7.310;2022-11-20T03:22:21;-4.10;1.00
14053;DHT22;7101;51.600;7.310;2022-11-20T03:24:48;-4.20;1.00
14053;DHT22;7101;51.600;7.310;2022-11-20T03:27:16;-4.30;1.00
14053;DHT22;7101;51.600;7.310;2022-11-20T03:29:43;-4.30;1.00
14053;DHT22;7101;51.600;7.310;2022-11-20T03:32:11;-4.30;1.00
14053;DHT22;7101;51.600;7.310;2022-11-20T03:34:37;-4.40;1.00
14053;DHT22;7101;51.600;7.310;2022-11-20T03:37:04;-4.40;1.00
14053;DHT22;7101;51.600;7.310;2022-11-20T03:39:31;-4.40;1.00
14053;DHT22;7101;51.600;7.310;2022-11-20T03:41:59;-4.50;1.00
14053;DHT22;7101;51.600;7.310;2022-11-20T03:44:25;-4.50;1.00
14053;DHT22;7101;51.600;7.310;2022-11-20T03:46:52;-4.50;1.00
14053;DHT22;7101;51.600;7.310;2022-11-20T03:49:20;-4.50;1.00
14053;DHT22;7101;51.600;7.310;2022-11-20T03:51:47;-4.40;1.00
14053;DHT22;7101;51.600;7.310;2022-11-20T03:54:14;-4.40;1.00
14053;DHT22;7101;51.600;7.310;2022-11-20T03:56:41;-4.50;1.00
14053;DHT22;7101;51.600;7.310;2022-11-20T03:59:10;-4.40;1.00
14053;DHT22;7101;51.600;7.310;2022-11-20T04:01:38;-4.40;1.00
14053;DHT22;7101;51.600;7.310;2022-11-20T04:04:06;-4.50;1.00
14053;DHT22;7101;51.600;7.310;2022-11-20T04:06:36;-4.60;1.00
14053;DHT22;7101;51.600;7.310;2022-11-20T04:09:04;-4.50;1.00
14053;DHT22;7101;51.600;7.310;2022-11-20T04:11:32;-4.50;1.00
14053;DHT22;7101;51.600;7.310;2022-11-20T04:14:00;-4.50;1.00
14053;DHT22;7101;51.600;7.310;2022-11-20T04:16:29;-4.50;1.00
14053;DHT22;7101;51.600;7.310;2022-11-20T04:18:58;-4.50;1.00
14053;DHT22;7101;51.600;7.310;2022-11-20T04:21:26;-4.50;1.00
14053;DHT22;7101;51.600;7.310;2022-11-20T04:23:56;-4.40;1.00
14053;DHT22;7101;51.600;7.310;2022-11-20T04:26:24;-4.30;1.00
14053;DHT22;7101;51.600;7.310;2022-11-20T04:28:53;-4.30;1.00
14053;DHT22;7101;51.600;7.310;2022-11-20T04:31:22;-4.30;99.90
14053;DHT22;7101;51.600;7.310;2022-11-20T04:33:49;-4.30;1.00
14053;DHT22;7101;51.600;7.310;2022-11-20T04:36:21;-4.40;1.00
14053;DHT22;7101;51.600;7.310;2022-11-20T04:38:50;-4.50;99.90
14053;DHT22;7101;51.600;7.310;2022-11-20T04:41:20;-4.50;23.80
14053;DHT22;7101;51.600;7.310;2022-11-20T04:43:50;-4.60;1.00
14053;DHT22;7101;51.600;7.310;2022-11-20T04:46:18;-4.60;99.90
14053;DHT22;7101;51.600;7.310;2022-11-20T04:48:46;-4.60;99.90
14053;DHT22;7101;51.600;7.310;2022-11-20T04:51:15;-4.70;1.00
14053;DHT22;7101;51.600;7.310;2022-11-20T04:53:43;-4.70;1.00
14053;DHT22;7101;51.600;7.310;2022-11-20T04:56:11;-4.70;1.00
14053;DHT22;7101;51.600;7.310;2022-11-20T04:58:42;-4.70;99.90
14053;DHT22;7101;51.600;7.310;2022-11-20T05:01:11;-4.80;99.90
14053;DHT22;7101;51.600;7.310;2022-11-20T05:03:40;-4.80;99.90
14053;DHT22;7101;51.600;7.310;2022-11-20T05:06:08;-4.70;1.00
14053;DHT22;7101;51.600;7.310;2022-11-20T05:08:34;-4.70;1.00
14053;DHT22;7101;51.600;7.310;2022-11-20T05:11:02;-4.70;96.70
14053;DHT22;7101;51.600;7.310;2022-11-20T05:13:29;-4.70;1.00
14053;DHT22;7101;51.600;7.310;2022-11-20T05:16:02;-4.70;1.00
14053;DHT22;7101;51.600;7.310;2022-11-20T05:18:30;-4.70;1.00
14053;DHT22;7101;51.600;7.310;2022-11-20T05:20:57;-4.70;99.90
14053;DHT22;7101;51.600;7.310;2022-11-20T05:23:25;-4.60;99.90
14053;DHT22;7101;51.600;7.310;2022-11-20T05:25:52;-4.60;1.00
14053;DHT22;7101;51.600;7.310;2022-11-20T05:28:20;-4.50;1.00
14053;DHT22;7101;51.600;7.310;2022-11-20T05:30:47;-4.40;1.00
14053;DHT22;7101;51.600;7.310;2022-11-20T05:33:15;-4.20;1.00
14053;DHT22;7101;51.600;7.310;2022-11-20T05:35:43;-3.80;1.00
14053;DHT22;7101;51.600;7.310;2022-11-20T05:38:10;-3.60;1.00
14053;DHT22;7101;51.600;7.310;2022-11-20T05:40:37;-3.40;1.00
14053;DHT22;7101;51.600;7.310;2022-11-20T05:43:03;-3.30;1.00
14053;DHT22;7101;51.600;7.310;2022-11-20T05:45:30;-3.20;1.00
14053;DHT22;7101;51.600;7.310;2022-11-20T05:47:58;-3.30;1.00
14053;DHT22;7101;51.600;7.310;2022-11-20T05:50:27;-3.20;1.00
14053;DHT22;7101;51.600;7.310;2022-11-20T05:52:54;-3.00;1.00
14053;DHT22;7101;51.600;7.310;2022-11-20T05:55:25;-2.90;1.00
14053;DHT22;7101;51.600;7.310;2022-11-20T05:57:52;-2.90;1.00
14053;DHT22;7101;51.600;7.310;2022-11-20T06:00:20;-2.90;1.00
14053;DHT22;7101;51.600;7.310;2022-11-20T06:02:47;-2.90;1.00
14053;DHT22;7101;51.600;7.310;2022-11-20T06:05:14;-2.90;1.00
14053;DHT22;7101;51.600;7.310;2022-11-20T06:07:42;-2.80;1.00
14053;DHT22;7101;51.600;7.310;2022-11-20T06:10:10;-2.60;1.00
14053;DHT22;7101;51.600;7.310;2022-11-20T06:12:37;-2.50;1.00
14053;DHT22;7101;51.600;7.310;2022-11-20T06:15:06;-2.50;1.00
14053;DHT22;7101;51.600;7.310;2022-11-20T06:17:33;-2.60;99.90
14053;DHT22;7101;51.600;7.310;2022-11-20T06:19:59;-2.60;99.90
14053;DHT22;7101;51.600;7.310;2022-11-20T06:22:26;-2.50;99.90
14053;DHT22;7101;51.600;7.310;2022-11-20T06:24:54;-2.50;99.90
14053;DHT22;7101;51.600;7.310;2022-11-20T06:27:21;-2.60;1.00
14053;DHT22;7101;51.600;7.310;2022-11-20T06:29:48;-2.50;1.00
14053;DHT22;7101;51.600;7.310;2022-11-20T06:32:15;-2.60;1.00
14053;DHT22;7101;51.600;7.310;2022-11-20T06:34:42;-2.80;99.90
14053;DHT22;7101;51.600;7.310;2022-11-20T06:37:10;-2.70;99.90
14053;DHT22;7101;51.600;7.310;2022-11-20T06:39:36;-3.00;99.90
14053;DHT22;7101;51.600;7.310;2022-11-20T06:42:04;-3.20;99.90
14053;DHT22;7101;51.600;7.310;2022-11-20T06:44:32;-3.20;99.90
14053;DHT22;7101;51.600;7.310;2022-11-20T06:46:59;-3.30;99.90
14053;DHT22;7101;51.600;7.310;2022-11-20T06:49:25;-3.20;99.90
14053;DHT22;7101;51.600;7.310;2022-11-20T06:51:52;-3.30;15.30
14053;DHT22;7101;51.600;7.310;2022-11-20T06:54:22;-3.40;99.90
14053;DHT22;7101;51.600;7.310;2022-11-20T06:56:49;-3.50;99.90
14053;DHT22;7101;51.600;7.310;2022-11-20T06:59:18;-3.60;99.90
14053;DHT22;7101;51.600;7.310;2022-11-20T07:01:45;-3.60;1.00
14053;DHT22;7101;51.600;7.310;2022-11-20T07:04:12;-3.60;1.00
14053;DHT22;7101;51.600;7.310;2022-11-20T07:06:39;-3.60;1.00
14053;DHT22;7101;51.600;7.310;2022-11-20T07:09:06;-3.60;1.00
14053;DHT22;7101;51.600;7.310;2022-11-20T07:11:33;-3.50;1.00
14053;DHT22;7101;51.600;7.310;2022-11-20T07:14:00;-3.50;1.00
14053;DHT22;7101;51.600;7.310;2022-11-20T07:16:28;-3.50;99.90
14053;DHT22;7101;51.600;7.310;2022-11-20T07:18:55;-3.70;99.90
14053;DHT22;7101;51.600;7.310;2022-11-20T07:21:21;-3.70;1.00
14053;DHT22;7101;51.600;7.310;2022-11-20T07:23:49;-3.70;1.00
14053;DHT22;7101;51.600;7.310;2022-11-20T07:26:16;-3.60;1.00
14053;DHT22;7101;51.600;7.310;2022-11-20T07:28:44;-3.60;1.00
14053;DHT22;7101;51.600;7.310;2022-11-20T07:31:11;-3.60;1.00
14053;DHT22;7101;51.600;7.310;2022-11-20T07:33:39;-3.60;1.00
14053;DHT22;7101;51.600;7.310;2022-11-20T07:36:07;-3.60;1.00
14053;DHT22;7101;51.600;7.310;2022-11-20T07:38:35;-3.50;1.00
14053;DHT22;7101;51.600;7.310;2022-11-20T07:41:01;-3.50;1.00
14053;DHT22;7101;51.600;7.310;2022-11-20T07:43:28;-3.40;1.00
14053;DHT22;7101;51.600;7.310;2022-11-20T07:45:56;-3.50;1.00
14053;DHT22;7101;51.600;7.310;2022-11-20T07:48:23;-3.40;1.00
14053;DHT22;7101;51.600;7.310;2022-11-20T07:50:55;-3.40;16.80
14053;DHT22;7101;51.600;7.310;2022-11-20T07:53:22;-3.40;99.90
14053;DHT22;7101;51.600;7.310;2022-11-20T07:55:48;-3.30;58.10
14053;DHT22;7101;51.600;7.310;2022-11-20T07:58:17;-3.30;36.20
14053;DHT22;7101;51.600;7.310;2022-11-20T08:00:44;-3.30;1.00
14053;DHT22;7101;51.600;7.310;2022-11-20T08:03:12;-3.20;1.00
14053;DHT22;7101;51.600;7.310;2022-11-20T08:05:39;-3.20;1.00
14053;DHT22;7101;51.600;7.310;2022-11-20T08:08:07;-3.10;1.00
14053;DHT22;7101;51.600;7.310;2022-11-20T08:10:34;-3.10;1.00
14053;DHT22;7101;51.600;7.310;2022-11-20T08:13:00;-3.00;1.00
14053;DHT22;7101;51.600;7.310;2022-11-20T08:15:48;-2.90;72.60
14053;DHT22;7101;51.600;7.310;2022-11-20T08:18:16;-2.70;99.90
14053;DHT22;7101;51.600;7.310;2022-11-20T08:20:45;-2.70;99.90
14053;DHT22;7101;51.600;7.310;2022-11-20T08:23:14;-2.60;1.00
14053;DHT22;7101;51.600;7.310;2022-11-20T08:25:40;-2.50;38.30
14053;DHT22;7101;51.600;7.310;2022-11-20T08:28:09;-2.30;99.90
14053;DHT22;7101;51.600;7.310;2022-11-20T08:30:36;-2.20;62.50
14053;DHT22;7101;51.600;7.310;2022-11-20T08:33:05;-2.10;6.00
14053;DHT22;7101;51.600;7.310;2022-11-20T08:35:34;-1.90;99.90
14053;DHT22;7101;51.600;7.310;2022-11-20T08:38:01;-1.90;11.10
14053;DHT22;7101;51.600;7.310;2022-11-20T08:40:30;-1.70;13.20
14053;DHT22;7101;51.600;7.310;2022-11-20T08:42:58;-1.60;99.90
14053;DHT22;7101;51.600;7.310;2022-11-20T08:45:26;-1.60;1.00
14053;DHT22;7101;51.600;7.310;2022-11-20T08:47:53;-1.50;1.00
14053;DHT22;7101;51.600;7.310;2022-11-20T08:50:19;-1.50;1.00
14053;DHT22;7101;51.600;7.310;2022-11-20T08:52:46;-1.40;1.00
14053;DHT22;7101;51.600;7.310;2022-11-20T08:55:14;-1.40;1.00
14053;DHT22;7101;51.600;7.310;2022-11-20T08:57:43;-1.20;82.00
14053;DHT22;7101;51.600;7.310;2022-11-20T09:00:11;-1.10;1.00
14053;DHT22;7101;51.600;7.310;2022-11-20T09:02:38;-0.90;1.00
14053;DHT22;7101;51.600;7.310;2022-11-20T09:05:05;-0.80;1.00
14053;DHT22;7101;51.600;7.310;2022-11-20T09:07:32;-0.80;99.90
14053;DHT22;7101;51.600;7.310;2022-11-20T09:09:59;-0.80;1.00
14053;DHT22;7101;51.600;7.310;2022-11-20T09:12:27;-0.70;1.00
14053;DHT22;7101;51.600;7.310;2022-11-20T09:14:55;-0.70;1.00
14053;DHT22;7101;51.600;7.310;2022-11-20T09:17:21;-0.40;99.90
14053;DHT22;7101;51.600;7.310;2022-11-20T09:19:48;-0.10;1.00
14053;DHT22;7101;51.600;7.310;2022-11-20T09:22:16;-0.30;1.00
14053;DHT22;7101;51.600;7.310;2022-11-20T09:24:43;-0.30;1.00
14053;DHT22;7101;51.600;7.310;2022-11-20T09:27:14;-0.30;1.00
14053;DHT22;7101;51.600;7.310;2022-11-20T09:29:45;-0.10;25.00
14053;DHT22;7101;51.600;7.310;2022-11-20T09:32:14;0.00;99.90
14053;DHT22;7101;51.600;7.310;2022-11-20T09:34:41;0.10;99.90
14053;DHT22;7101;51.600;7.310;2022-11-20T09:37:09;0.20;99.90
14053;DHT22;7101;51.600;7.310;2022-11-20T09:39:36;0.30;99.90
14053;DHT22;7101;51.600;7.310;2022-11-20T09:42:20;0.40;1.00
14053;DHT22;7101;51.600;7.310;2022-11-20T09:45:02;0.50;1.00
14053;DHT22;7101;51.600;7.310;2022-11-20T09:47:45;0.50;1.00
14053;DHT22;7101;51.600;7.310;2022-11-20T09:50:23;0.70;1.00
14053;DHT22;7101;51.600;7.310;2022-11-20T09:53:03;0.80;99.90
14053;DHT22;7101;51.600;7.310;2022-11-20T09:55:31;0.80;1.00
14053;DHT22;7101;51.600;7.310;2022-11-20T09:58:00;0.90;1.00
14053;DHT22;7101;51.600;7.310;2022-11-20T10:00:28;1.00;1.00
14053;DHT22;7101;51.600;7.310;2022-11-20T10:03:01;1.10;1.00
14053;DHT22;7101;51.600;7.310;2022-11-20T10:05:33;1.20;99.90
14053;DHT22;7101;51.600;7.310;2022-11-20T10:08:09;1.30;99.90
14053;DHT22;7101;51.600;7.310;2022-11-20T10:10:44;1.30;1.00
14053;DHT22;7101;51.600;7.310;2022-11-20T10:13:23;1.40;1.00
14053;DHT22;7101;51.600;7.310;2022-11-20T10:16:03;1.50;1.00
14053;DHT22;7101;51.600;7.310;2022-11-20T10:18:44;1.70;99.90
14053;DHT22;7101;51.600;7.310;2022-11-20T10:21:23;2.00;99.90
14053;DHT22;7101;51.600;7.310;2022-11-20T10:24:14;2.20;66.20
14053;DHT22;7101;51.600;7.310;2022-11-20T10:26:51;2.40;1.00
14053;DHT22;7101;51.600;7.310;2022-11-20T10:29:28;2.60;40.70
14053;DHT22;7101;51.600;7.310;2022-11-20T10:32:01;2.70;1.00
14053;DHT22;7101;51.600;7.310;2022-11-20T10:34:35;2.70;1.00
14053;DHT22;7101;51.600;7.310;2022-11-20T10:37:09;2.90;99.90
14053;DHT22;7101;51.600;7.310;2022-11-20T10:39:44;3.00;1.00
14053;DHT22;7101;51.600;7.310;2022-11-20T10:42:17;3.20;53.50
14053;DHT22;7101;51.600;7.310;2022-11-20T10:44:50;3.50;1.00
14053;DHT22;7101;51.600;7.310;2022-11-20T10:47:31;3.70;1.00
14053;DHT22;7101;51.600;7.310;2022-11-20T10:50:03;3.60;1.00
14053;DHT22;7101;51.600;7.310;2022-11-20T10:52:37;3.50;99.90
14053;DHT22;7101;51.600;7.310;2022-11-20T10:55:11;3.50;99.90
14053;DHT22;7101;51.600;7.310;2022-11-20T10:57:53;3.70;99.90
14053;DHT22;7101;51.600;7.310;2022-11-20T11:00:21;3.90;1.00
14053;DHT22;7101;51.600;7.310;2022-11-20T11:02:49;4.00;1.00
14053;DHT22;7101;51.600;7.310;2022-11-20T11:05:32;4.20;1.00
14053;DHT22;7101;51.600;7.310;2022-11-20T11:08:03;4.20;1.00
14053;DHT22;7101;51.600;7.310;2022-11-20T11:10:38;4.30;1.00
14053;DHT22;7101;51.600;7.310;2022-11-20T11:13:07;4.30;1.00
14053;DHT22;7101;51.600;7.310;2022-11-20T11:15:40;4.20;1.00
14053;DHT22;7101;51.600;7.310;2022-11-20T11:18:09;4.20;1.00
14053;DHT22;7101;51.600;7.310;2022-11-20T11:20:38;4.10;1.00
14053;DHT22;7101;51.600;7.310;2022-11-20T11:23:26;4.00;1.00
14053;DHT22;7101;51.600;7.310;2022-11-20T11:25:58;4.00;1.00
14053;DHT22;7101;51.600;7.310;2022-11-20T11:28:28;4.00;1.00
14053;DHT22;7101;51.600;7.310;2022-11-20T11:30:57;4.00;1.00
14053;DHT22;7101;51.600;7.310;2022-11-20T11:33:27;4.10;1.00
14053;DHT22;7101;51.600;7.310;2022-11-20T11:35:58;4.30;1.00
14053;DHT22;7101;51.600;7.310;2022-11-20T11:38:30;4.30;1.00
14053;DHT22;7101;51.600;7.310;2022-11-20T11:41:00;4.40;1.00
14053;DHT22;7101;51.600;7.310;2022-11-20T11:43:30;4.60;1.00
14053;DHT22;7101;51.600;7.310;2022-11-20T11:46:26;4.70;1.00
14053;DHT22;7101;51.600;7.310;2022-11-20T11:48:58;4.80;1.00
14053;DHT22;7101;51.600;7.310;2022-11-20T11:51:33;4.50;1.00
14053;DHT22;7101;51.600;7.310;2022-11-20T11:54:03;4.60;1.00
14053;DHT22;7101;51.600;7.310;2022-11-20T11:56:33;4.80;1.00
14053;DHT22;7101;51.600;7.310;2022-11-20T11:59:05;4.80;1.00
14053;DHT22;7101;51.600;7.310;2022-11-20T12:01:37;4.80;1.00
14053;DHT22;7101;51.600;7.310;2022-11-20T12:04:14;4.60;1.00
14053;DHT22;7101;51.600;7.310;2022-11-20T12:06:53;4.60;1.00
14053;DHT22;7101;51.600;7.310;2022-11-20T12:09:38;4.70;1.00
14053;DHT22;7101;51.600;7.310;2022-11-20T12:12:12;4.80;1.00
14053;DHT22;7101;51.600;7.310;2022-11-20T12:14:43;4.90;1.00
14053;DHT22;7101;51.600;7.310;2022-11-20T12:17:14;5.00;1.00
14053;DHT22;7101;51.600;7.310;2022-11-20T12:19:41;4.80;1.00
14053;DHT22;7101;51.600;7.310;2022-11-20T12:22:17;4.60;1.00
14053;DHT22;7101;51.600;7.310;2022-11-20T12:24:54;4.70;1.00
14053;DHT22;7101;51.600;7.310;2022-11-20T12:27:51;4.70;1.00
14053;DHT22;7101;51.600;7.310;2022-11-20T12:30:23;4.70;1.00
14053;DHT22;7101;51.600;7.310;2022-11-20T12:33:19;4.70;1.00
14053;DHT22;7101;51.600;7.310;2022-11-20T12:36:06;4.70;1.00
14053;DHT22;7101;51.600;7.310;2022-11-20T12:39:01;4.60;1.00
14053;DHT22;7101;51.600;7.310;2022-11-20T12:41:55;4.60;1.00
14053;DHT22;7101;51.600;7.310;2022-11-20T12:48:00;4.80;1.00
14053;DHT22;7101;51.600;7.310;2022-11-20T12:50:40;4.70;1.00
14053;DHT22;7101;51.600;7.310;2022-11-20T12:53:23;4.70;1.00
14053;DHT22;7101;51.600;7.310;2022-11-20T12:55:58;4.70;1.00
14053;DHT22;7101;51.600;7.310;2022-11-20T12:58:36;4.70;1.00
14053;DHT22;7101;51.600;7.310;2022-11-20T13:01:12;4.70;1.00
14053;DHT22;7101;51.600;7.310;2022-11-20T13:04:11;4.50;1.00
14053;DHT22;7101;51.600;7.310;2022-11-20T13:06:40;4.50;1.00
14053;DHT22;7101;51.600;7.310;2022-11-20T13:09:10;4.50;1.00
14053;DHT22;7101;51.600;7.310;2022-11-20T13:11:48;4.40;1.00
14053;DHT22;7101;51.600;7.310;2022-11-20T13:14:26;4.20;1.00
14053;DHT22;7101;51.600;7.310;2022-11-20T13:17:00;4.00;1.00
14053;DHT22;7101;51.600;7.310;2022-11-20T13:19:31;4.10;1.00
14053;DHT22;7101;51.600;7.310;2022-11-20T13:22:00;4.10;1.00
14053;DHT22;7101;51.600;7.310;2022-11-20T13:24:28;4.00;1.00
14053;DHT22;7101;51.600;7.310;2022-11-20T13:27:05;3.90;1.00
14053;DHT22;7101;51.600;7.310;2022-11-20T13:29:45;4.00;1.00
14053;DHT22;7101;51.600;7.310;2022-11-20T13:32:16;3.90;1.00
14053;DHT22;7101;51.600;7.310;2022-11-20T13:34:53;3.90;1.00
14053;DHT22;7101;51.600;7.310;2022-11-20T13:37:29;3.90;1.00
14053;DHT22;7101;51.600;7.310;2022-11-20T13:40:21;4.00;1.00
14053;DHT22;7101;51.600;7.310;2022-11-20T13:42:56;4.00;1.00
14053;DHT22;7101;51.600;7.310;2022-11-20T13:45:27;4.00;1.00
14053;DHT22;7101;51.600;7.310;2022-11-20T13:47:57;3.80;1.00
14053;DHT22;7101;51.600;7.310;2022-11-20T13:50:39;3.70;1.00
14053;DHT22;7101;51.600;7.310;2022-11-20T13:53:20;3.80;1.00
14053;DHT22;7101;51.600;7.310;2022-11-20T13:55:54;3.60;1.00
14053;DHT22;7101;51.600;7.310;2022-11-20T13:58:30;3.60;1.00
14053;DHT22;7101;51.600;7.310;2022-11-20T14:01:10;3.60;1.00
14053;DHT22;7101;51.600;7.310;2022-11-20T14:03:38;3.50;1.00
14053;DHT22;7101;51.600;7.310;2022-11-20T14:06:12;3.50;1.00
14053;DHT22;7101;51.600;7.310;2022-11-20T14:08:45;3.40;99.90
14053;DHT22;7101;51.600;7.310;2022-11-20T14:11:15;3.50;99.90
14053;DHT22;7101;51.600;7.310;2022-11-20T14:13:57;3.50;99.90
14053;DHT22;7101;51.600;7.310;2022-11-20T14:16:26;3.40;99.90
14053;DHT22;7101;51.600;7.310;2022-11-20T14:18:54;3.40;99.90
14053;DHT22;7101;51.600;7.310;2022-11-20T14:21:26;3.40;99.90
14053;DHT22;7101;51.600;7.310;2022-11-20T14:24:03;3.50;99.90
14053;DHT22;7101;51.600;7.310;2022-11-20T14:26:31;3.40;99.90
14053;DHT22;7101;51.600;7.310;2022-11-20T14:29:00;3.40;99.90
14053;DHT22;7101;51.600;7.310;2022-11-20T14:31:27;3.40;99.90
14053;DHT22;7101;51.600;7.310;2022-11-20T14:33:55;3.40;99.90
14053;DHT22;7101;51.600;7.310;2022-11-20T14:36:24;3.40;99.90
14053;DHT22;7101;51.600;7.310;2022-11-20T14:38:53;3.30;99.90
14053;DHT22;7101;51.600;7.310;2022-11-20T14:41:21;3.40;99.90
14053;DHT22;7101;51.600;7.310;2022-11-20T14:43:53;3.40;99.90
14053;DHT22;7101;51.600;7.310;2022-11-20T14:46:22;3.30;99.90
14053;DHT22;7101;51.600;7.310;2022-11-20T14:48:51;3.30;1.00
14053;DHT22;7101;51.600;7.310;2022-11-20T14:51:27;3.10;1.00
14053;DHT22;7101;51.600;7.310;2022-11-20T14:53:54;3.30;1.00
14053;DHT22;7101;51.600;7.310;2022-11-20T14:56:22;3.20;82.50
14053;DHT22;7101;51.600;7.310;2022-11-20T14:58:55;3.20;99.90
14053;DHT22;7101;51.600;7.310;2022-11-20T15:01:29;3.20;1.00
14053;DHT22;7101;51.600;7.310;2022-11-20T15:04:01;3.10;1.00
14053;DHT22;7101;51.600;7.310;2022-11-20T15:06:28;3.10;1.00
14053;DHT22;7101;51.600;7.310;2022-11-20T15:08:57;3.10;99.90
14053;DHT22;7101;51.600;7.310;2022-11-20T15:11:28;3.10;99.90
14053;DHT22;7101;51.600;7.310;2022-11-20T15:14:01;3.10;1.00
14053;DHT22;7101;51.600;7.310;2022-11-20T15:16:31;3.00;17.30
14053;DHT22;7101;51.600;7.310;2022-11-20T15:18:58;3.00;99.90
14053;DHT22;7101;51.600;7.310;2022-11-20T15:21:26;3.10;99.90
14053;DHT22;7101;51.600;7.310;2022-11-20T15:23:53;3.10;1.00
14053;DHT22;7101;51.600;7.310;2022-11-20T15:26:23;3.00;1.00
14053;DHT22;7101;51.600;7.310;2022-11-20T15:28:51;3.00;99.90
14053;DHT22;7101;51.600;7.310;2022-11-20T15:31:22;3.00;99.90
14053;DHT22;7101;51.600;7.310;2022-11-20T15:33:50;3.00;1.00
14053;DHT22;7101;51.600;7.310;2022-11-20T15:36:17;3.00;1.00
14053;DHT22;7101;51.600;7.310;2022-11-20T15:38:45;3.00;1.00
14053;DHT22;7101;51.600;7.310;2022-11-20T15:41:13;3.10;1.00
14053;DHT22;7101;51.600;7.310;2022-11-20T15:43:41;3.10;1.00
14053;DHT22;7101;51.600;7.310;2022-11-20T15:46:16;3.10;98.90
14053;DHT22;7101;51.600;7.310;2022-11-20T15:48:44;3.00;1.00
14053;DHT22;7101;51.600;7.310;2022-11-20T15:51:21;3.00;1.00
14053;DHT22;7101;51.600;7.310;2022-11-20T15:53:50;3.00;1.00
14053;DHT22;7101;51.600;7.310;2022-11-20T15:56:18;2.90;99.90
14053;DHT22;7101;51.600;7.310;2022-11-20T15:58:44;2.90;1.00
14053;DHT22;7101;51.600;7.310;2022-11-20T16:01:12;2.80;1.00
14053;DHT22;7101;51.600;7.310;2022-11-20T16:03:40;2.90;1.00
14053;DHT22;7101;51.600;7.310;2022-11-20T16:06:08;3.00;99.90
14053;DHT22;7101;51.600;7.310;2022-11-20T16:08:36;2.90;99.90
14053;DHT22;7101;51.600;7.310;2022-11-20T16:11:03;2.90;99.90
14053;DHT22;7101;51.600;7.310;2022-11-20T16:13:31;2.90;99.90
14053;DHT22;7101;51.600;7.310;2022-11-20T16:16:21;2.90;99.90
14053;DHT22;7101;51.600;7.310;2022-11-20T16:18:48;3.00;99.90
14053;DHT22;7101;51.600;7.310;2022-11-20T16:21:17;2.80;1.00
14053;DHT22;7101;51.600;7.310;2022-11-20T16:23:45;2.80;1.00
14053;DHT22;7101;51.600;7.310;2022-11-20T16:26:14;2.80;99.90
14053;DHT22;7101;51.600;7.310;2022-11-20T16:28:44;2.80;99.90